Time;durP1;ratioP1;P1;durP2;ratioP2;P2;SDS_P1;SDS_P2;PMS_P1;PMS_P2;Temp;Humidity;BMP_temperature;BMP_pressure;BME280_temperature;BME280_humidity;BME280_pressure;Samples;Min_cycle;Max_cycle;Signal;HPM_P1;HPM_P2
2021/07/21 00:00:35;;;;;;;7.07;6.47;;;;;;;21.00;100.00;95924.50;4976053;28;20309;-83
2021/07/21 00:03:03;;;;;;;7.07;6.20;;;;;;;20.96;100.00;95934.84;4975781;28;20240;-83
2021/07/21 00:05:30;;;;;;;10.03;6.80;;;;;;;20.94;100.00;95933.44;4975933;28;20193;-83
2021/07/21 00:07:59;;;;;;;6.50;5.93;;;;;;;20.89;100.00;95944.81;4975702;28;20240;-83
2021/07/21 00:10:30;;;;;;;6.67;6.03;;;;;;;20.86;100.00;95942.59;4976003;28;20303;-83
2021/07/21 00:15:54;;;;;;;5.17;4.77;;;;;;;20.81;100.00;95958.50;4975872;28;20227;-83
2021/07/21 00:18:26;;;;;;;9.53;5.53;;;;;;;20.83;100.00;95957.22;4975355;28;20237;-83
2021/07/21 00:20:54;;;;;;;7.83;5.40;;;;;;;20.81;100.00;95967.31;4975453;28;20643;-83
2021/07/21 00:23:21;;;;;;;5.73;5.27;;;;;;;20.79;100.00;95965.94;4975398;28;20197;-83
2021/07/21 00:25:49;;;;;;;6.00;5.40;;;;;;;20.75;100.00;95964.75;4975500;28;20241;-83
2021/07/21 00:28:17;;;;;;;5.90;5.30;;;;;;;20.74;100.00;95973.81;4975643;28;20301;-83
2021/07/21 00:30:46;;;;;;;7.77;6.03;;;;;;;20.64;100.00;95969.88;4975252;28;20209;-83
2021/07/21 00:33:13;;;;;;;7.93;5.20;;;;;;;20.74;100.00;95968.47;4975227;28;20201;-83
2021/07/21 00:35:41;;;;;;;5.77;5.20;;;;;;;20.77;100.00;95973.34;4975331;28;20316;-83
2021/07/21 00:38:08;;;;;;;5.50;5.00;;;;;;;20.69;100.00;95966.50;4975455;28;20205;-83
2021/07/21 00:40:35;;;;;;;5.40;4.90;;;;;;;20.67;100.00;95974.72;4975378;28;20204;-83
2021/07/21 00:43:03;;;;;;;7.17;5.50;;;;;;;20.67;100.00;95981.91;4975334;28;20308;-83
2021/07/21 00:45:31;;;;;;;5.90;5.17;;;;;;;20.60;100.00;95983.88;4975208;28;20292;-83
2021/07/21 00:48:00;;;;;;;5.53;5.03;;;;;;;20.64;100.00;95988.56;4974920;28;20240;-83
2021/07/21 00:50:27;;;;;;;7.43;6.03;;;;;;;20.57;100.00;95993.16;4974817;28;20240;-83
2021/07/21 00:52:55;;;;;;;5.67;5.07;;;;;;;20.56;100.00;95993.41;4974812;28;20197;-83
2021/07/21 00:55:22;;;;;;;7.90;5.57;;;;;;;20.49;100.00;95987.31;4974938;28;20772;-83
2021/07/21 00:57:49;;;;;;;6.53;5.73;;;;;;;20.56;100.00;95999.53;4974841;28;20220;-83
2021/07/21 01:00:19;;;;;;;7.07;6.20;;;;;;;20.60;100.00;95999.91;4975227;28;20205;-83
2021/07/21 01:02:48;;;;;;;8.17;6.33;;;;;;;20.58;100.00;96000.16;4974463;28;20692;-83
2021/07/21 01:05:24;;;;;;;8.57;6.30;;;;;;;20.66;100.00;96004.34;4975063;28;20229;-82
2021/07/21 01:07:52;;;;;;;8.40;6.30;;;;;;;20.71;100.00;96011.66;4974575;28;20721;-83
2021/07/21 01:10:20;;;;;;;7.10;6.40;;;;;;;20.64;100.00;96020.59;4974780;28;20256;-83
2021/07/21 01:12:53;;;;;;;7.60;6.30;;;;;;;20.66;100.00;96015.81;4974256;28;20228;-82
2021/07/21 01:15:26;;;;;;;7.07;6.40;;;;;;;20.81;100.00;96028.75;4974948;28;20235;-83
2021/07/21 01:17:58;;;;;;;8.27;6.23;;;;;;;20.74;100.00;96027.22;4974358;28;20311;-83
2021/07/21 01:21:13;;;;;;;7.23;6.20;;;;;;;20.69;100.00;96035.13;4974191;28;20666;-83
2021/07/21 01:24:05;;;;;;;9.77;6.90;;;;;;;20.60;100.00;96027.41;4974301;28;20569;-82
2021/07/21 01:26:42;;;;;;;9.93;7.13;;;;;;;20.60;100.00;96029.28;4974440;28;20186;-82
2021/07/21 01:29:12;;;;;;;8.90;7.03;;;;;;;20.61;100.00;96029.06;4974364;28;20279;-82
2021/07/21 01:31:43;;;;;;;7.87;6.77;;;;;;;20.60;100.00;96032.75;4974274;28;20674;-82
2021/07/21 01:34:11;;;;;;;9.53;6.70;;;;;;;20.58;100.00;96034.84;4974158;28;20198;-82
2021/07/21 01:36:43;;;;;;;7.37;6.67;;;;;;;20.62;100.00;96037.88;4974375;28;20232;-82
2021/07/21 01:39:13;;;;;;;8.07;7.23;;;;;;;20.59;100.00;96041.81;4974229;28;20244;-83
2021/07/21 01:41:47;;;;;;;8.77;7.57;;;;;;;20.62;100.00;96044.03;4974362;28;20263;-83
2021/07/21 01:44:20;;;;;;;12.60;7.57;;;;;;;20.57;100.00;96041.22;4974221;28;20639;-82
2021/07/21 01:46:52;;;;;;;8.73;6.57;;;;;;;20.60;100.00;96046.09;4973904;28;20186;-82
2021/07/21 01:49:22;;;;;;;9.07;7.37;;;;;;;20.55;100.00;96045.97;4974117;28;20285;-82
2021/07/21 01:51:50;;;;;;;10.13;7.00;;;;;;;20.55;100.00;96035.31;4973828;28;20198;-82
2021/07/21 01:54:19;;;;;;;11.43;6.73;;;;;;;20.54;100.00;96033.69;4973716;28;20201;-82
2021/07/21 01:56:48;;;;;;;11.23;7.20;;;;;;;20.52;100.00;96041.09;4973689;28;20228;-83
2021/07/21 01:59:18;;;;;;;9.33;6.87;;;;;;;20.55;100.00;96039.84;4974071;28;20201;-82
2021/07/21 02:01:47;;;;;;;11.00;8.27;;;;;;;20.54;100.00;96041.69;4973934;28;20583;-82
2021/07/21 02:04:16;;;;;;;9.80;6.60;;;;;;;20.47;100.00;96037.44;4974231;28;20588;-82
2021/07/21 02:06:44;;;;;;;10.17;6.57;;;;;;;20.54;100.00;96033.69;4973656;28;20232;-82
2021/07/21 02:09:12;;;;;;;8.50;7.60;;;;;;;20.57;100.00;96038.53;4973807;28;20255;-82
2021/07/21 02:11:40;;;;;;;14.27;8.43;;;;;;;20.49;100.00;96036.16;4973536;28;20236;-82
2021/07/21 02:14:09;;;;;;;10.47;7.60;;;;;;;20.56;100.00;96036.91;4973795;28;20239;-82
2021/07/21 02:16:39;;;;;;;8.37;7.37;;;;;;;20.55;100.00;96037.97;4973152;28;20224;-83
2021/07/21 02:19:07;;;;;;;11.20;8.13;;;;;;;20.57;100.00;96033.19;4973306;28;20241;-82
2021/07/21 02:21:38;;;;;;;8.80;7.53;;;;;;;20.53;100.00;96031.22;4973271;28;20201;-82
2021/07/21 02:24:07;;;;;;;10.77;8.70;;;;;;;20.50;100.00;96036.97;4973468;28;20664;-82
2021/07/21 02:26:37;;;;;;;9.17;7.93;;;;;;;20.48;100.00;96034.56;4973338;28;20293;-82
2021/07/21 02:29:05;;;;;;;11.20;8.33;;;;;;;20.48;100.00;96028.41;4973291;28;20205;-82
2021/07/21 02:31:38;;;;;;;8.73;7.90;;;;;;;20.47;100.00;96027.59;4973779;28;20288;-82
2021/07/21 02:34:07;;;;;;;11.70;7.97;;;;;;;20.44;100.00;96020.03;4973313;28;20193;-83
2021/07/21 02:36:35;;;;;;;10.63;8.53;;;;;;;20.42;100.00;96020.25;4973157;28;20283;-82
2021/07/21 02:39:06;;;;;;;11.13;8.93;;;;;;;20.45;100.00;96029.66;4973182;28;20283;-82
2021/07/21 02:41:34;;;;;;;10.20;8.10;;;;;;;20.46;100.00;96023.28;4973269;28;20912;-83
2021/07/21 02:44:02;;;;;;;11.73;7.57;;;;;;;20.48;100.00;96023.06;4973285;28;20205;-82
2021/07/21 02:46:29;;;;;;;10.63;7.23;;;;;;;20.56;100.00;96034.25;4973532;28;20196;-82
2021/07/21 02:48:58;;;;;;;13.53;11.50;;;;;;;20.52;100.00;96043.75;4973303;28;20201;-82
2021/07/21 02:51:33;;;;;;;11.90;9.37;;;;;;;20.49;100.00;96052.19;4972942;28;20201;-82
2021/07/21 02:54:09;;;;;;;14.37;11.60;;;;;;;20.48;100.00;96045.22;4973040;28;20195;-82
2021/07/21 02:56:43;;;;;;;10.47;8.90;;;;;;;20.47;100.00;96043.59;4972985;28;20592;-82
2021/07/21 02:59:15;;;;;;;14.33;10.20;;;;;;;20.47;100.00;96053.44;4973128;28;20193;-82
2021/07/21 03:01:48;;;;;;;11.07;9.57;;;;;;;20.39;100.00;96050.06;4973077;28;20580;-82
2021/07/21 03:04:20;;;;;;;12.43;8.70;;;;;;;20.38;100.00;96048.44;4973032;28;20185;-82
2021/07/21 03:06:51;;;;;;;10.73;8.07;;;;;;;20.39;100.00;96055.38;4972677;28;20572;-82
2021/07/21 03:09:21;;;;;;;10.43;9.30;;;;;;;20.41;100.00;96058.66;4973277;28;20199;-82
2021/07/21 03:11:53;;;;;;;8.80;7.80;;;;;;;20.40;100.00;96061.53;4973325;28;20201;-82
2021/07/21 03:14:22;;;;;;;11.00;8.30;;;;;;;20.39;100.00;96055.38;4973219;28;20189;-82
2021/07/21 03:16:52;;;;;;;11.83;8.23;;;;;;;20.44;100.00;96054.75;4972500;28;20829;-82
2021/07/21 03:19:24;;;;;;;15.63;12.30;;;;;;;20.47;100.00;96062.28;4972714;28;20227;-82
2021/07/21 03:21:53;;;;;;;14.00;12.43;;;;;;;20.47;100.00;96062.28;4972750;28;20189;-82
2021/07/21 03:24:23;;;;;;;10.70;9.60;;;;;;;20.51;100.00;96060.03;4972797;28;20647;-82
2021/07/21 03:26:51;;;;;;;10.57;8.10;;;;;;;20.55;100.00;96061.19;4972513;28;20201;-82
2021/07/21 03:29:21;;;;;;;13.53;9.30;;;;;;;20.55;100.00;96066.53;4972761;28;20206;-82
2021/07/21 03:31:49;;;;;;;18.17;8.80;;;;;;;20.55;100.00;96067.34;4972680;28;20240;-82
2021/07/21 03:34:18;;;;;;;12.63;10.03;;;;;;;20.53;100.00;96068.59;4976437;28;20670;-82
2021/07/21 03:36:49;;;;;;;9.53;8.63;;;;;;;20.52;100.00;96065.13;4975999;28;20260;-82
2021/07/21 03:39:20;;;;;;;11.07;8.80;;;;;;;20.50;100.00;96069.84;4976454;28;20725;-82
2021/07/21 03:41:49;;;;;;;11.40;9.03;;;;;;;20.46;100.00;96070.50;4976164;28;20676;-82
2021/07/21 03:44:20;;;;;;;12.30;9.43;;;;;;;20.50;100.00;96079.69;4976369;28;20645;-82
2021/07/21 03:46:48;;;;;;;10.73;8.93;;;;;;;20.57;100.00;96075.91;4976112;28;20209;-82
2021/07/21 03:49:18;;;;;;;11.00;8.40;;;;;;;20.58;100.00;96074.91;4976477;28;20201;-82
2021/07/21 03:51:46;;;;;;;9.43;8.27;;;;;;;20.62;100.00;96080.59;4976046;28;20193;-81
2021/07/21 03:54:16;;;;;;;9.53;8.40;;;;;;;20.64;100.00;96079.34;4976028;28;20244;-82
2021/07/21 03:56:46;;;;;;;10.67;8.53;;;;;;;20.66;100.00;96087.94;4976191;28;20307;-80
2021/07/21 03:59:17;;;;;;;15.33;9.30;;;;;;;20.66;100.00;96079.91;4975993;28;20719;-80
2021/07/21 04:01:46;;;;;;;11.03;9.83;;;;;;;20.66;100.00;96079.91;4975862;28;20655;-79
2021/07/21 04:04:16;;;;;;;10.77;9.67;;;;;;;20.70;100.00;96090.16;4975664;28;20212;-80
2021/07/21 04:06:46;;;;;;;15.70;11.90;;;;;;;20.63;100.00;96093.72;4976335;28;20227;-80
2021/07/21 04:09:16;;;;;;;15.83;13.33;;;;;;;20.67;100.00;96086.06;4976128;28;20234;-80
2021/07/21 04:11:46;;;;;;;11.50;10.33;;;;;;;20.66;100.00;96092.47;4975747;28;20233;-80
2021/07/21 04:14:16;;;;;;;11.50;10.00;;;;;;;20.66;100.00;96095.94;4975778;28;20678;-79
2021/07/21 04:16:44;;;;;;;11.30;9.07;;;;;;;20.63;100.00;96091.03;4975614;28;20213;-80
2021/07/21 04:19:15;;;;;;;11.13;10.00;;;;;;;20.65;100.00;96098.84;4975961;28;20246;-79
2021/07/21 04:21:45;;;;;;;12.27;9.60;;;;;;;20.63;100.00;96095.56;4975612;28;20292;-79
2021/07/21 04:24:14;;;;;;;12.97;9.83;;;;;;;20.71;100.00;96105.94;4975629;28;20232;-79
2021/07/21 04:26:42;;;;;;;11.03;9.43;;;;;;;20.76;100.00;96105.28;4975207;28;20260;-80
2021/07/21 04:29:14;;;;;;;11.20;8.37;;;;;;;20.82;100.00;96101.69;4975522;28;20248;-80
2021/07/21 04:31:43;;;;;;;11.97;8.67;;;;;;;20.93;100.00;96113.47;4975421;28;20244;-81
2021/07/21 04:34:12;;;;;;;12.83;8.83;;;;;;;21.05;100.00;96127.66;4975141;28;20296;-82
2021/07/21 04:36:40;;;;;;;11.50;10.30;;;;;;;21.16;100.00;96126.88;4975213;28;20728;-80
2021/07/21 04:39:09;;;;;;;12.60;9.43;;;;;;;21.15;100.00;96125.25;4975585;28;20207;-80
2021/07/21 04:41:37;;;;;;;11.67;9.57;;;;;;;21.21;100.00;96136.91;4975601;28;20205;-79
2021/07/21 04:44:05;;;;;;;14.87;10.40;;;;;;;21.29;100.00;96128.53;4974571;28;20300;-79
2021/07/21 04:46:35;;;;;;;11.77;8.90;;;;;;;21.34;100.00;96136.72;4975413;28;20236;-79
2021/07/21 04:49:03;;;;;;;10.67;8.70;;;;;;;21.33;100.00;96132.38;4975055;28;20197;-80
2021/07/21 04:51:31;;;;;;;13.87;8.47;;;;;;;21.41;100.00;96139.31;4975135;28;20203;-80
2021/07/21 04:54:03;;;;;;;10.23;9.23;;;;;;;21.43;100.00;96135.34;4974739;28;20233;-80
2021/07/21 04:56:31;;;;;;;11.80;8.33;;;;;;;21.49;100.00;96142.44;4974991;28;20244;-80
2021/07/21 04:58:58;;;;;;;13.10;9.40;;;;;;;21.50;100.00;96136.03;4974833;28;20291;-80
2021/07/21 05:01:26;;;;;;;9.57;8.77;;;;;;;21.60;100.00;96148.84;4974962;28;20203;-80
2021/07/21 05:03:55;;;;;;;11.60;8.63;;;;;;;21.64;100.00;96157.22;4974819;28;20212;-80
2021/07/21 05:06:24;;;;;;;11.23;9.37;;;;;;;21.73;100.00;96147.81;4975172;28;20201;-80
2021/07/21 05:08:52;;;;;;;9.53;8.47;;;;;;;21.78;100.00;96156.75;4974968;28;20200;-80
2021/07/21 05:11:19;;;;;;;12.77;9.73;;;;;;;21.84;100.00;96149.69;4974577;28;20212;-80
2021/07/21 05:13:46;;;;;;;14.33;10.17;;;;;;;21.86;100.00;96155.63;4974803;28;20197;-80
2021/07/21 05:16:14;;;;;;;11.43;10.00;;;;;;;21.87;100.00;96159.91;4974634;28;20271;-80
2021/07/21 05:18:42;;;;;;;11.23;9.93;;;;;;;21.96;100.00;96161.22;4974275;28;20291;-80
2021/07/21 05:21:10;;;;;;;10.07;9.00;;;;;;;22.03;100.00;96153.88;4974640;28;20201;-79
2021/07/21 05:23:38;;;;;;;13.00;9.03;;;;;;;22.10;100.00;96159.13;4974631;28;20200;-80
2021/07/21 05:26:07;;;;;;;10.63;9.37;;;;;;;22.19;100.00;96165.75;4974435;28;20201;-80
2021/07/21 05:28:37;;;;;;;10.53;9.00;;;;;;;22.20;100.00;96166.56;4974602;28;20275;-80
2021/07/21 05:31:05;;;;;;;11.57;8.67;;;;;;;22.34;100.00;96175.16;4974492;28;20649;-80
2021/07/21 05:33:32;;;;;;;16.07;12.27;;;;;;;22.36;100.00;96179.25;4974479;28;20224;-80
2021/07/21 05:36:00;;;;;;;11.70;9.30;;;;;;;22.47;100.00;96182.94;4974534;28;20636;-80
2021/07/21 05:38:29;;;;;;;15.83;10.27;;;;;;;22.53;100.00;96187.38;4974133;28;20222;-80
2021/07/21 05:40:56;;;;;;;13.63;9.47;;;;;;;22.62;100.00;96188.63;4974162;28;20287;-80
2021/07/21 05:43:24;;;;;;;19.40;11.63;;;;;;;22.66;100.00;96183.63;4974001;28;20243;-80
2021/07/21 05:45:52;;;;;;;11.07;9.40;;;;;;;22.73;100.00;96186.97;4974124;28;20670;-80
2021/07/21 05:48:19;;;;;;;12.10;9.67;;;;;;;22.81;100.00;96199.19;4973921;28;20288;-80
2021/07/21 05:50:47;;;;;;;13.73;9.67;;;;;;;22.93;100.00;96203.50;4974005;28;20691;-80
2021/07/21 05:53:17;;;;;;;10.57;8.93;;;;;;;22.93;100.00;96208.84;4973940;28;20215;-80
2021/07/21 05:55:46;;;;;;;14.00;8.87;;;;;;;22.98;100.00;96205.44;4973193;28;20238;-80
2021/07/21 05:58:14;;;;;;;16.90;9.87;;;;;;;23.10;100.00;96208.06;4973376;28;20225;-81
2021/07/21 06:00:42;;;;;;;12.67;9.87;;;;;;;23.10;100.00;96200.84;4973842;28;20207;-81
2021/07/21 06:03:09;;;;;;;12.47;9.23;;;;;;;23.10;100.00;96198.16;4973582;28;20234;-81
2021/07/21 06:05:38;;;;;;;12.37;8.87;;;;;;;23.21;100.00;96217.97;4973733;28;20256;-81
2021/07/21 06:08:06;;;;;;;14.53;8.70;;;;;;;23.26;100.00;96218.84;4973269;28;20196;-81
2021/07/21 06:10:34;;;;;;;10.80;9.17;;;;;;;23.39;100.00;96220.44;4973951;28;20255;-81
2021/07/21 06:13:02;;;;;;;9.77;8.77;;;;;;;23.47;100.00;96222.72;4973777;28;20637;-80
2021/07/21 06:15:30;;;;;;;12.07;9.27;;;;;;;23.49;100.00;96226.00;4973744;28;20670;-81
2021/07/21 06:17:57;;;;;;;10.87;9.20;;;;;;;23.55;100.00;96226.06;4972884;28;20777;-81
2021/07/21 06:20:25;;;;;;;14.37;8.70;;;;;;;23.78;100.00;96227.84;4973547;28;20209;-81
2021/07/21 06:22:52;;;;;;;9.37;7.73;;;;;;;23.84;100.00;96222.31;4973326;28;20667;-80
2021/07/21 06:25:20;;;;;;;9.90;8.60;;;;;;;23.93;100.00;96228.91;4973771;28;20630;-81
2021/07/21 06:27:48;;;;;;;16.40;10.03;;;;;;;23.98;100.00;96238.91;4973274;28;20252;-81
2021/07/21 06:30:17;;;;;;;11.67;10.33;;;;;;;24.12;100.00;96234.84;4973220;28;20197;-81
2021/07/21 06:32:45;;;;;;;11.83;8.83;;;;;;;24.20;100.00;96220.19;4973683;28;20212;-81
2021/07/21 06:35:13;;;;;;;11.53;9.37;;;;;;;24.32;100.00;96225.47;4973383;28;20205;-81
2021/07/21 06:37:41;;;;;;;11.13;9.20;;;;;;;24.18;100.00;96222.31;4973158;28;20264;-81
2021/07/21 06:40:09;;;;;;;12.47;10.63;;;;;;;24.28;100.00;96235.06;4973293;28;20732;-80
2021/07/21 06:42:37;;;;;;;9.47;8.50;;;;;;;24.28;100.00;96233.22;4973216;28;20228;-81
2021/07/21 06:45:05;;;;;;;12.93;9.33;;;;;;;24.40;100.00;96246.56;4973280;28;20205;-81
2021/07/21 06:47:34;;;;;;;16.30;9.37;;;;;;;24.41;100.00;96235.56;4973084;28;20203;-81
2021/07/21 06:50:01;;;;;;;11.07;9.00;;;;;;;24.63;100.00;96242.88;4973419;28;20773;-81
2021/07/21 06:52:28;;;;;;;12.23;9.10;;;;;;;24.69;100.00;96244.53;4973058;28;20201;-81
2021/07/21 06:54:56;;;;;;;10.07;8.53;;;;;;;24.56;100.00;96245.72;4973071;28;20243;-81
2021/07/21 06:57:23;;;;;;;10.53;9.07;;;;;;;24.57;100.00;96241.97;4972836;28;20229;-81
2021/07/21 06:59:51;;;;;;;10.73;8.80;;;;;;;24.71;100.00;96242.44;4972836;28;20197;-81
2021/07/21 07:02:18;;;;;;;10.97;8.93;;;;;;;24.91;100.00;96242.69;4973235;28;20288;-81
2021/07/21 07:04:47;;;;;;;9.27;8.37;;;;;;;24.90;100.00;96259.06;4973002;28;20200;-81
2021/07/21 07:07:17;;;;;;;10.47;8.87;;;;;;;24.79;100.00;96250.03;4975109;28;20252;-81
2021/07/21 07:09:44;;;;;;;10.30;8.73;;;;;;;24.81;100.00;96247.94;4976941;28;20263;-81
2021/07/21 07:12:12;;;;;;;12.03;9.53;;;;;;;24.91;100.00;96248.06;4976631;28;20319;-81
2021/07/21 07:14:41;;;;;;;11.17;9.23;;;;;;;24.96;100.00;96250.00;4977235;28;20236;-81
2021/07/21 07:17:08;;;;;;;21.03;10.53;;;;;;;25.08;100.00;96257.97;4976441;28;20328;-81
2021/07/21 07:19:35;;;;;;;10.47;8.73;;;;;;;25.07;100.00;96262.50;4976815;28;20189;-83
2021/07/21 07:22:05;;;;;;;12.40;8.83;;;;;;;25.06;100.00;96260.88;4976496;28;20247;-83
2021/07/21 07:24:32;;;;;;;11.67;8.57;;;;;;;25.21;100.00;96262.16;4976695;28;20201;-83
2021/07/21 07:27:01;;;;;;;11.00;8.60;;;;;;;25.17;100.00;96256.47;4976457;28;20197;-82
2021/07/21 07:29:28;;;;;;;10.20;9.10;;;;;;;25.16;100.00;96265.59;4976879;28;20208;-83
2021/07/21 07:31:56;;;;;;;11.33;8.73;;;;;;;25.27;100.00;96266.53;4976138;28;20200;-83
2021/07/21 07:34:23;;;;;;;11.40;9.33;;;;;;;25.71;100.00;96269.16;4976537;28;20201;-84
2021/07/21 07:36:50;;;;;;;16.00;8.97;;;;;;;25.77;100.00;96282.41;4976619;28;20260;-83
2021/07/21 07:39:21;;;;;;;9.97;8.80;;;;;;;25.61;100.00;96272.56;4976620;28;20232;-81
2021/07/21 07:41:48;;;;;;;17.03;11.87;;;;;;;25.72;100.00;96285.03;4976119;28;20225;-81
2021/07/21 07:44:16;;;;;;;9.83;8.83;;;;;;;25.58;100.00;96289.19;4976548;28;20205;-82
2021/07/21 07:46:43;;;;;;;10.70;9.07;;;;;;;25.61;100.00;96278.75;4976147;28;20296;-82
2021/07/21 07:49:11;;;;;;;10.83;8.93;;;;;;;25.48;100.00;96281.03;4976219;28;20208;-82
2021/07/21 07:51:38;;;;;;;11.37;8.83;;;;;;;25.60;100.00;96279.81;4976087;28;20201;-82
2021/07/21 07:54:06;;;;;;;9.67;8.50;;;;;;;25.56;100.00;96276.00;4976401;28;20228;-82
2021/07/21 07:56:35;;;;;;;10.50;9.33;;;;;;;25.69;100.00;96290.13;4976371;28;20255;-82
2021/07/21 07:59:03;;;;;;;10.73;9.53;;;;;;;25.86;100.00;96288.16;4976353;28;20279;-82
2021/07/21 08:01:30;;;;;;;10.50;9.10;;;;;;;26.08;100.00;96286.22;4976350;28;20232;-82
2021/07/21 08:03:57;;;;;;;10.60;9.10;;;;;;;26.13;100.00;96287.34;4976001;28;20200;-83
2021/07/21 08:06:25;;;;;;;11.97;8.97;;;;;;;25.94;100.00;96300.34;4976527;28;20240;-82
2021/07/21 08:08:53;;;;;;;9.93;8.80;;;;;;;26.00;100.00;96293.94;4976029;28;20298;-82
2021/07/21 08:11:21;;;;;;;9.70;8.70;;;;;;;25.95;100.00;96293.91;4975855;28;20207;-82
2021/07/21 08:13:50;;;;;;;12.07;9.20;;;;;;;26.02;100.00;96291.81;4975693;28;20658;-83
2021/07/21 08:16:17;;;;;;;9.80;7.80;;;;;;;26.26;100.00;96300.38;4975759;28;20264;-82
2021/07/21 08:18:45;;;;;;;8.80;8.00;;;;;;;26.36;100.00;96305.00;4974546;28;20248;-82
2021/07/21 08:21:12;;;;;;;11.57;9.33;;;;;;;26.48;100.00;96313.78;4975504;28;20760;-82
2021/07/21 08:23:40;;;;;;;15.27;8.70;;;;;;;26.56;100.00;96307.88;4975481;28;20205;-82
2021/07/21 08:26:07;;;;;;;10.40;8.83;;;;;;;26.38;100.00;96316.34;4975646;28;20205;-83
2021/07/21 08:28:38;;;;;;;12.73;9.00;;;;;;;26.34;100.00;96305.28;4975120;28;20225;-82
2021/07/21 08:31:07;;;;;;;9.75;8.68;;;;;;;26.43;100.00;96311.00;4975587;28;20193;-83
2021/07/21 08:33:37;;;;;;;11.50;8.20;;;;;;;26.62;100.00;96304.16;4975577;28;20283;-83
2021/07/21 08:36:05;;;;;;;9.57;7.72;;;;;;;26.65;100.00;96300.94;4975655;28;20247;-82
2021/07/21 08:38:32;;;;;;;13.43;8.70;;;;;;;27.02;100.00;96302.78;4975065;28;20231;-82
2021/07/21 08:41:02;;;;;;;10.32;8.90;;;;;;;27.18;100.00;96301.00;4975364;28;20631;-82
2021/07/21 08:43:30;;;;;;;12.50;8.85;;;;;;;26.94;100.00;96295.19;4975143;28;20208;-82
2021/07/21 08:45:58;;;;;;;12.32;9.70;;;;;;;27.11;100.00;96295.00;4975292;28;20337;-82
2021/07/21 08:48:28;;;;;;;10.07;9.07;;;;;;;27.40;100.00;96298.09;4974768;28;20295;-83
2021/07/21 08:50:56;;;;;;;10.07;8.70;;;;;;;27.36;100.00;96305.91;4975401;28;20241;-83
2021/07/21 08:53:24;;;;;;;11.70;9.50;;;;;;;27.60;100.00;96308.97;4975240;28;20629;-83
2021/07/21 08:55:51;;;;;;;16.63;9.38;;;;;;;27.61;100.00;96297.09;4974849;28;20240;-82
2021/07/21 08:58:20;;;;;;;12.52;9.65;;;;;;;27.76;100.00;96300.94;4974800;28;20233;-82
2021/07/21 09:00:51;;;;;;;11.10;9.52;;;;;;;27.96;100.00;96303.69;4974935;28;20588;-83
2021/07/21 09:03:21;;;;;;;14.18;9.60;;;;;;;27.66;100.00;96299.81;4975163;28;20573;-83
2021/07/21 09:05:51;;;;;;;14.57;10.05;;;;;;;27.69;100.00;96293.88;4975177;28;20226;-83
2021/07/21 09:08:18;;;;;;;10.95;8.90;;;;;;;27.75;100.00;96289.31;4974953;28;20300;-82
2021/07/21 09:10:47;;;;;;;10.82;9.18;;;;;;;27.45;100.00;96290.03;4975245;28;20205;-83
2021/07/21 09:13:15;;;;;;;11.52;9.43;;;;;;;27.59;100.00;96285.75;4974932;28;20232;-82
2021/07/21 09:15:43;;;;;;;9.68;8.68;;;;;;;27.69;100.00;96291.16;4974405;28;20205;-83
2021/07/21 09:18:12;;;;;;;10.05;9.05;;;;;;;27.88;100.00;96290.69;4974259;28;20287;-83
2021/07/21 09:20:41;;;;;;;10.02;8.90;;;;;;;28.01;100.00;96287.47;4974944;28;20239;-83
2021/07/21 09:23:11;;;;;;;10.35;9.32;;;;;;;28.15;100.00;96291.25;4974368;28;20203;-83
2021/07/21 09:25:40;;;;;;;13.23;10.25;;;;;;;28.38;100.00;96291.81;4974493;28;20626;-83
2021/07/21 09:28:09;;;;;;;10.18;9.15;;;;;;;28.19;100.00;96289.63;4974426;28;20201;-83
2021/07/21 09:30:39;;;;;;;12.55;10.15;;;;;;;28.30;100.00;96279.66;4974434;28;20201;-83
2021/07/21 09:33:09;;;;;;;10.40;9.40;;;;;;;28.03;100.00;96293.41;4974206;28;20201;-82
2021/07/21 09:35:38;;;;;;;10.45;9.45;;;;;;;27.98;100.00;96286.09;4974318;28;20204;-82
2021/07/21 09:38:08;;;;;;;14.02;8.77;;;;;;;28.08;100.00;96290.72;4974053;28;20229;-83
2021/07/21 09:40:39;;;;;;;11.07;8.93;;;;;;;28.03;100.00;96285.31;4974193;28;20205;-83
2021/07/21 09:43:12;;;;;;;9.30;8.40;;;;;;;28.27;100.00;96280.19;4974063;28;20236;-83
2021/07/21 09:45:41;;;;;;;10.98;8.13;;;;;;;28.06;100.00;96283.97;4973967;28;20186;-83
2021/07/21 09:48:09;;;;;;;10.30;9.30;;;;;;;28.38;100.00;96272.88;4974265;28;20197;-83
2021/07/21 09:50:39;;;;;;;11.70;9.35;;;;;;;28.49;100.00;96282.63;4974357;28;20232;-83
2021/07/21 09:53:12;;;;;;;11.40;9.77;;;;;;;28.28;100.00;96281.00;4973673;28;20189;-83
2021/07/21 09:55:42;;;;;;;10.02;8.75;;;;;;;28.11;100.00;96284.78;4974024;28;20185;-83
2021/07/21 09:58:11;;;;;;;11.48;9.60;;;;;;;28.27;100.00;96280.19;4973995;28;20354;-83
2021/07/21 10:00:41;;;;;;;12.75;10.20;;;;;;;28.45;100.00;96286.97;4974188;28;20193;-83
2021/07/21 10:03:14;;;;;;;12.98;10.27;;;;;;;28.45;100.00;96286.97;4973656;28;20248;-83
2021/07/21 10:06:02;;;;;;;10.20;8.70;;;;;;;28.57;100.00;96281.25;4973673;28;20662;-83
2021/07/21 10:08:33;;;;;;;11.63;8.95;;;;;;;28.96;100.00;96272.50;4973583;28;20195;-83
2021/07/21 10:11:22;;;;;;;11.02;9.48;;;;;;;28.98;100.00;96273.06;4973964;28;20197;-83
2021/07/21 10:13:49;;;;;;;11.40;9.27;;;;;;;29.10;100.00;96262.78;4973308;28;20213;-84
2021/07/21 10:16:40;;;;;;;13.43;9.48;;;;;;;29.34;100.00;96265.63;4973689;28;20665;-83
2021/07/21 10:19:10;;;;;;;11.85;9.30;;;;;;;29.66;100.00;96254.38;4973342;28;20240;-83
2021/07/21 10:21:39;;;;;;;11.20;9.70;;;;;;;29.59;100.00;96252.00;4973836;28;20279;-83
2021/07/21 10:24:08;;;;;;;16.70;11.98;;;;;;;29.41;100.00;96249.91;4973489;28;20292;-83
2021/07/21 10:26:37;;;;;;;18.10;11.68;;;;;;;29.26;100.00;96260.78;4973856;28;20200;-84
2021/07/21 10:29:06;;;;;;;11.98;10.00;;;;;;;29.29;100.00;96257.53;4973748;28;20240;-83
2021/07/21 10:31:34;;;;;;;11.85;10.70;;;;;;;29.49;100.00;96246.59;4973439;28;20201;-84
2021/07/21 10:34:02;;;;;;;10.95;9.85;;;;;;;29.84;100.00;96242.06;4973027;28;20208;-83
2021/07/21 10:36:31;;;;;;;11.70;9.90;;;;;;;29.88;100.00;96247.72;4973331;28;20585;-83
2021/07/21 10:38:59;;;;;;;12.52;11.23;;;;;;;29.83;100.00;96241.25;4973066;28;20705;-83
2021/07/21 10:41:29;;;;;;;13.77;10.90;;;;;;;30.06;100.00;96238.91;4973035;28;20682;-83
2021/07/21 10:44:00;;;;;;;12.27;11.07;;;;;;;29.51;100.00;96239.00;4972982;28;20228;-84
2021/07/21 10:46:49;;;;;;;14.80;11.38;;;;;;;29.46;100.00;96235.50;4973348;28;20193;-83
2021/07/21 10:49:23;;;;;;;11.55;10.30;;;;;;;29.29;100.00;96235.88;4973201;28;20181;-84
2021/07/21 10:52:33;;;;;;;11.18;9.25;;;;;;;29.18;100.00;96234.31;4973407;28;20212;-84
2021/07/21 10:55:02;;;;;;;10.63;9.52;;;;;;;29.35;100.00;96226.66;4972910;28;20189;-84
2021/07/21 11:00:19;;;;;;;9.80;8.70;;;;;;;29.72;100.00;96230.75;4973347;28;20179;-84
2021/07/21 11:02:49;;;;;;;11.27;9.07;;;;;;;29.67;100.00;96233.53;4973224;28;20276;-84
2021/07/21 11:05:33;;;;;;;8.88;7.50;;;;;;;29.94;100.00;96224.94;4972869;28;20702;-84
2021/07/21 11:08:03;;;;;;;11.02;9.38;;;;;;;29.97;100.00;96218.94;4973214;28;20204;-84
2021/07/21 11:10:35;;;;;;;10.82;9.73;;;;;;;29.65;100.00;96212.16;4973014;28;20260;-84
2021/07/21 11:13:03;;;;;;;10.13;9.13;;;;;;;29.81;100.00;96220.94;4972846;28;20196;-84
2021/07/21 11:15:41;;;;;;;11.60;8.73;;;;;;;29.53;100.00;96217.88;4972986;28;20197;-84
2021/07/21 11:18:51;;;;;;;11.50;10.35;;;;;;;29.45;100.00;96218.47;4972590;28;20804;-84
2021/07/21 11:21:21;;;;;;;10.88;9.65;;;;;;;29.75;100.00;96227.50;4972683;28;20200;-84
2021/07/21 11:24:02;;;;;;;11.55;9.77;;;;;;;29.63;100.00;96218.94;4973054;28;20644;-84
2021/07/21 11:26:46;;;;;;;11.15;9.68;;;;;;;29.97;100.00;96216.25;4973168;28;20588;-84
2021/07/21 11:29:49;;;;;;;10.07;9.13;;;;;;;29.96;100.00;96218.16;4972802;28;20241;-84
2021/07/21 11:32:39;;;;;;;11.02;8.40;;;;;;;29.92;100.00;96217.06;4932414;28;20201;-84
2021/07/21 11:35:43;;;;;;;8.60;7.70;;;;;;;29.77;100.00;96209.88;4972891;28;20225;-84
2021/07/21 11:38:46;;;;;;;9.35;8.43;;;;;;;30.17;100.00;96217.94;4941855;28;20728;-84